Time;durP1;ratioP1;P1;durP2;ratioP2;P2;SDS_P1;SDS_P2;PMS_P1;PMS_P2;Temp;Humidity;BMP_temperature;BMP_pressure;BME280_temperature;BME280_humidity;BME280_pressure;Samples;Min_cycle;Max_cycle;Signal;HPM_P1;HPM_P2
2023/08/19 00:00:32;;;;;;;768.10;642.17;;;;;;;;;;5087324;28;20381;-60
2023/08/19 00:02:57;;;;;;;770.15;649.67;;;;;;;;;;5085231;28;20684;-55
2023/08/19 00:05:23;;;;;;;774.80;647.80;;;;;;;;;;5086897;28;20019;-59
2023/08/19 00:07:48;;;;;;;770.15;640.97;;;;;;;;;;5083197;28;20463;-56
2023/08/19 00:10:13;;;;;;;772.90;636.50;;;;;;;;;;5087080;28;20031;-61
2023/08/19 00:12:38;;;;;;;785.13;641.17;;;;;;;;;;5083561;28;20032;-57
2023/08/19 00:15:04;;;;;;;775.50;625.60;;;;;;;;;;5086873;28;20022;-57
2023/08/19 00:17:29;;;;;;;781.38;637.85;;;;;;;;;;5085291;28;20031;-55
2023/08/19 00:19:54;;;;;;;767.73;642.53;;;;;;;;;;5085634;28;20497;-56
2023/08/19 00:22:20;;;;;;;767.73;642.90;;;;;;;;;;5083177;28;20268;-56
2023/08/19 00:24:45;;;;;;;766.10;640.30;;;;;;;;;;5085947;28;20287;-60
2023/08/19 00:27:12;;;;;;;767.03;647.00;;;;;;;;;;5085011;28;20253;-61
2023/08/19 00:29:37;;;;;;;776.92;648.33;;;;;;;;;;5086807;28;20023;-61
2023/08/19 00:32:02;;;;;;;773.92;644.42;;;;;;;;;;5082660;28;20028;-57
2023/08/19 00:34:28;;;;;;;787.40;649.63;;;;;;;;;;5086207;28;20038;-57
2023/08/19 00:36:54;;;;;;;779.67;642.93;;;;;;;;;;5084917;28;20039;-60
2023/08/19 00:39:19;;;;;;;777.88;642.58;;;;;;;;;;5085909;28;20379;-59
2023/08/19 00:41:45;;;;;;;780.75;645.42;;;;;;;;;;5085212;28;20119;-58
2023/08/19 00:44:10;;;;;;;776.65;628.15;;;;;;;;;;5086214;28;20031;-58
2023/08/19 00:46:36;;;;;;;774.63;635.00;;;;;;;;;;5083980;28;20098;-60
2023/08/19 00:49:01;;;;;;;768.13;600.08;;;;;;;;;;5085959;28;20017;-61
2023/08/19 00:51:27;;;;;;;765.63;603.55;;;;;;;;;;5084143;28;20044;-58
2023/08/19 00:53:53;;;;;;;774.78;631.55;;;;;;;;;;5086364;28;20043;-60
2023/08/19 00:56:18;;;;;;;776.17;620.83;;;;;;;;;;5083772;28;20461;-58
2023/08/19 00:58:43;;;;;;;782.35;637.33;;;;;;;;;;5086209;28;20442;-61
2023/08/19 01:01:08;;;;;;;781.28;623.60;;;;;;;;;;5085223;28;20766;-56
2023/08/19 01:03:34;;;;;;;788.00;635.40;;;;;;;;;;5084797;28;20143;-56
2023/08/19 01:05:59;;;;;;;778.00;626.50;;;;;;;;;;5086222;28;20461;-60
2023/08/19 01:08:29;;;;;;;769.22;627.25;;;;;;;;;;5066809;28;20602;-58
2023/08/19 01:11:05;;;;;;;765.78;613.50;;;;;;;;;;5081611;28;20065;-61
2023/08/19 01:13:36;;;;;;;766.05;622.90;;;;;;;;;;5084408;28;20119;-58
2023/08/19 01:16:25;;;;;;;767.78;617.80;;;;;;;;;;5086339;28;20016;-57
2023/08/19 01:18:51;;;;;;;771.80;630.30;;;;;;;;;;5023009;28;20424;-61
2023/08/19 01:21:16;;;;;;;762.10;616.08;;;;;;;;;;5025803;28;20044;-59
2023/08/19 01:23:43;;;;;;;771.15;639.30;;;;;;;;;;5042525;28;20657;-60
2023/08/19 01:26:08;;;;;;;760.78;617.38;;;;;;;;;;5042285;28;20047;-58
2023/08/19 01:28:34;;;;;;;757.40;609.55;;;;;;;;;;5042518;28;20521;-59
2023/08/19 01:31:00;;;;;;;765.30;568.47;;;;;;;;;;5042795;28;20151;-59
2023/08/19 01:33:25;;;;;;;770.67;563.38;;;;;;;;;;5041941;28;20033;-58
2023/08/19 01:36:05;;;;;;;763.38;602.75;;;;;;;;;;5042913;28;20507;-60
2023/08/19 01:38:40;;;;;;;764.47;620.72;;;;;;;;;;5042348;28;20025;-57
2023/08/19 01:41:05;;;;;;;770.97;637.35;;;;;;;;;;5042237;28;20410;-54
2023/08/19 01:43:31;;;;;;;772.22;636.40;;;;;;;;;;4990899;28;20045;-58
2023/08/19 01:45:57;;;;;;;775.42;637.33;;;;;;;;;;5043107;28;20021;-55
2023/08/19 01:48:22;;;;;;;766.28;631.25;;;;;;;;;;5041969;28;20029;-60
2023/08/19 01:50:47;;;;;;;768.17;630.00;;;;;;;;;;5042727;28;20545;-54
2023/08/19 01:53:13;;;;;;;760.20;630.30;;;;;;;;;;5041192;28;20592;-55
2023/08/19 01:55:38;;;;;;;763.40;634.78;;;;;;;;;;5052415;28;20123;-60
2023/08/19 01:58:03;;;;;;;766.80;632.27;;;;;;;;;;5083711;28;20052;-59
2023/08/19 02:00:28;;;;;;;772.27;603.23;;;;;;;;;;5089827;28;20264;-58
2023/08/19 02:02:54;;;;;;;761.90;627.10;;;;;;;;;;5086213;28;20333;-59
2023/08/19 02:05:19;;;;;;;765.13;637.20;;;;;;;;;;5090164;28;20626;-59
2023/08/19 02:07:44;;;;;;;760.05;620.45;;;;;;;;;;5087237;28;20102;-55
2023/08/19 02:10:11;;;;;;;759.05;629.85;;;;;;;;;;5089858;28;20020;-57
2023/08/19 02:12:37;;;;;;;763.38;640.47;;;;;;;;;;5087707;28;20115;-58
2023/08/19 02:15:02;;;;;;;761.13;630.33;;;;;;;;;;5088219;28;20425;-60
2023/08/19 02:17:27;;;;;;;758.20;637.75;;;;;;;;;;5089022;28;20024;-56
2023/08/19 02:19:53;;;;;;;764.57;637.53;;;;;;;;;;5088449;28;20051;-55
2023/08/19 02:22:20;;;;;;;769.30;646.08;;;;;;;;;;5087235;28;20260;-59
2023/08/19 02:24:46;;;;;;;760.67;638.70;;;;;;;;;;5087979;28;20067;-56
2023/08/19 02:27:11;;;;;;;760.88;638.97;;;;;;;;;;5087393;28;20056;-60
2023/08/19 02:29:36;;;;;;;756.87;620.90;;;;;;;;;;5088923;28;20512;-59
2023/08/19 02:32:02;;;;;;;752.40;620.00;;;;;;;;;;5086803;28;20259;-58
2023/08/19 02:34:27;;;;;;;745.90;623.38;;;;;;;;;;5089164;28;20028;-60
2023/08/19 02:36:53;;;;;;;755.28;633.70;;;;;;;;;;5087475;28;20122;-57
2023/08/19 02:39:18;;;;;;;770.10;638.10;;;;;;;;;;5088261;28;20055;-60
2023/08/19 02:41:43;;;;;;;759.78;635.03;;;;;;;;;;5088216;28;20161;-60
2023/08/19 02:44:08;;;;;;;757.33;626.67;;;;;;;;;;5069195;28;20409;-55
2023/08/19 02:46:34;;;;;;;764.17;636.70;;;;;;;;;;5068238;28;20269;-55
2023/08/19 02:48:59;;;;;;;755.28;621.95;;;;;;;;;;5088392;28;20759;-58
2023/08/19 02:51:24;;;;;;;759.17;629.28;;;;;;;;;;5086661;28;20044;-60
2023/08/19 02:53:49;;;;;;;748.08;619.17;;;;;;;;;;5089019;28;20554;-59
2023/08/19 02:56:15;;;;;;;765.17;637.97;;;;;;;;;;5087286;28;20544;-58
2023/08/19 02:58:40;;;;;;;765.50;637.58;;;;;;;;;;5088367;28;20260;-60
2023/08/19 03:01:05;;;;;;;759.28;628.17;;;;;;;;;;5087271;28;20549;-52
2023/08/19 03:03:31;;;;;;;759.80;635.53;;;;;;;;;;5085967;28;20020;-57
2023/08/19 03:05:59;;;;;;;745.75;622.55;;;;;;;;;;5087748;28;20811;-58
2023/08/19 03:08:24;;;;;;;750.90;624.33;;;;;;;;;;5086425;28;20030;-60
2023/08/19 03:10:50;;;;;;;758.20;626.67;;;;;;;;;;5088127;28;20029;-58
2023/08/19 03:13:15;;;;;;;748.17;620.47;;;;;;;;;;5086025;28;20030;-60
2023/08/19 03:15:40;;;;;;;753.40;637.40;;;;;;;;;;5086677;28;20020;-60
2023/08/19 03:18:06;;;;;;;744.47;628.78;;;;;;;;;;5086323;28;20288;-57
2023/08/19 03:20:31;;;;;;;747.75;622.17;;;;;;;;;;5084857;28;20098;-60
2023/08/19 03:22:56;;;;;;;752.53;619.83;;;;;;;;;;5087377;28;20473;-60
2023/08/19 03:25:22;;;;;;;753.58;627.03;;;;;;;;;;5086375;28;20032;-58
2023/08/19 03:27:47;;;;;;;753.28;632.75;;;;;;;;;;5085942;28;20036;-58
2023/08/19 03:30:12;;;;;;;756.03;628.13;;;;;;;;;;5088131;28;20020;-52
2023/08/19 03:32:38;;;;;;;770.50;634.08;;;;;;;;;;5086835;28;20019;-58
2023/08/19 03:35:03;;;;;;;762.10;632.78;;;;;;;;;;5087040;28;20036;-61
2023/08/19 03:37:29;;;;;;;756.95;630.05;;;;;;;;;;5086514;28;20547;-59
2023/08/19 03:39:54;;;;;;;755.35;636.38;;;;;;;;;;5086828;28;20434;-56
2023/08/19 03:42:19;;;;;;;766.72;643.85;;;;;;;;;;5085662;28;20047;-59
2023/08/19 03:44:44;;;;;;;759.00;646.92;;;;;;;;;;5087455;28;20035;-58
2023/08/19 03:47:10;;;;;;;758.58;633.33;;;;;;;;;;5085141;28;20447;-58
2023/08/19 03:49:36;;;;;;;769.92;641.20;;;;;;;;;;5087693;28;20512;-58
2023/08/19 03:52:01;;;;;;;774.38;640.75;;;;;;;;;;5078091;28;20048;-59
2023/08/19 03:54:26;;;;;;;767.53;652.38;;;;;;;;;;5067296;28;20397;-60
2023/08/19 03:56:51;;;;;;;754.87;641.43;;;;;;;;;;5072719;28;20056;-59
2023/08/19 03:59:17;;;;;;;762.45;647.55;;;;;;;;;;5087264;28;20256;-56
2023/08/19 04:01:42;;;;;;;755.22;636.40;;;;;;;;;;5086619;28;20404;-58
2023/08/19 04:04:08;;;;;;;762.03;641.88;;;;;;;;;;5087115;28;20055;-60
2023/08/19 04:06:34;;;;;;;759.92;649.13;;;;;;;;;;5086404;28;20028;-55
2023/08/19 04:09:00;;;;;;;755.75;648.83;;;;;;;;;;5085924;28;20032;-56
2023/08/19 04:11:26;;;;;;;761.40;653.38;;;;;;;;;;5084771;28;20099;-58
2023/08/19 04:13:52;;;;;;;760.90;653.70;;;;;;;;;;5087120;28;20164;-57
2023/08/19 04:16:18;;;;;;;754.95;663.70;;;;;;;;;;5085315;28;20054;-59
2023/08/19 04:18:43;;;;;;;758.20;661.53;;;;;;;;;;5070196;28;20463;-59
2023/08/19 04:21:09;;;;;;;750.67;655.47;;;;;;;;;;5082264;28;20065;-58
2023/08/19 04:23:34;;;;;;;746.60;614.92;;;;;;;;;;5085063;28;20043;-58
2023/08/19 04:26:00;;;;;;;804.50;662.42;;;;;;;;;;5086055;28;20402;-56
2023/08/19 04:28:25;;;;;;;813.40;642.83;;;;;;;;;;5084945;28;20016;-57
2023/08/19 04:30:51;;;;;;;813.28;660.00;;;;;;;;;;5084544;28;20028;-60
2023/08/19 04:33:17;;;;;;;801.15;654.75;;;;;;;;;;5082312;28;20028;-57
2023/08/19 04:35:43;;;;;;;794.88;660.97;;;;;;;;;;5086475;28;20047;-59
2023/08/19 04:38:08;;;;;;;778.97;626.75;;;;;;;;;;5084443;28;20230;-60
2023/08/19 04:40:33;;;;;;;784.60;649.63;;;;;;;;;;5085900;28;20202;-59
2023/08/19 04:42:58;;;;;;;775.58;641.67;;;;;;;;;;5083910;28;20797;-54
2023/08/19 04:45:24;;;;;;;781.40;644.10;;;;;;;;;;5067523;28;20027;-58
2023/08/19 04:47:50;;;;;;;785.50;648.42;;;;;;;;;;5084566;28;20614;-60
2023/08/19 04:50:16;;;;;;;782.42;640.85;;;;;;;;;;5086765;28;20024;-60
2023/08/19 04:52:41;;;;;;;783.83;639.78;;;;;;;;;;5082796;28;20089;-58
2023/08/19 04:55:07;;;;;;;767.83;633.03;;;;;;;;;;5084140;28;20038;-59
2023/08/19 04:57:32;;;;;;;778.67;633.45;;;;;;;;;;5084317;28;20921;-58
2023/08/19 04:59:57;;;;;;;771.58;646.08;;;;;;;;;;5085310;28;20028;-61
2023/08/19 05:02:22;;;;;;;761.50;644.30;;;;;;;;;;5084281;28;20475;-60
2023/08/19 05:04:48;;;;;;;757.40;633.22;;;;;;;;;;5086600;28;20300;-56
2023/08/19 05:07:13;;;;;;;770.15;634.63;;;;;;;;;;5075571;28;20511;-61
2023/08/19 05:09:38;;;;;;;771.60;649.17;;;;;;;;;;5066166;28;20032;-60
2023/08/19 05:12:04;;;;;;;760.80;645.60;;;;;;;;;;5073199;28;20771;-56
2023/08/19 05:14:29;;;;;;;756.28;651.47;;;;;;;;;;5076481;28;20338;-61
2023/08/19 05:16:54;;;;;;;760.80;657.30;;;;;;;;;;5083342;28;20016;-60
2023/08/19 05:19:20;;;;;;;763.53;650.17;;;;;;;;;;5086130;28;20740;-57
2023/08/19 05:21:46;;;;;;;763.20;657.85;;;;;;;;;;5083996;28;20261;-60
2023/08/19 05:24:12;;;;;;;750.40;641.30;;;;;;;;;;5085975;28;20496;-59
2023/08/19 05:26:41;;;;;;;767.78;652.85;;;;;;;;;;5083808;28;20035;-55
2023/08/19 05:29:07;;;;;;;761.30;644.30;;;;;;;;;;5085864;28;20115;-58
2023/08/19 05:31:32;;;;;;;758.15;658.35;;;;;;;;;;5084124;28;20545;-60
2023/08/19 05:33:58;;;;;;;745.58;636.28;;;;;;;;;;5089828;28;20032;-54
2023/08/19 05:36:23;;;;;;;753.25;647.80;;;;;;;;;;5087772;28;20034;-60
2023/08/19 05:38:48;;;;;;;754.75;645.92;;;;;;;;;;5089663;28;20016;-60
2023/08/19 05:41:14;;;;;;;754.67;627.20;;;;;;;;;;5088995;28;20020;-58
2023/08/19 05:43:39;;;;;;;749.13;642.08;;;;;;;;;;5088315;28;20032;-57
2023/08/19 05:46:05;;;;;;;757.88;645.28;;;;;;;;;;5089644;28;20095;-61
2023/08/19 05:48:31;;;;;;;739.25;632.47;;;;;;;;;;5068856;28;20698;-58
2023/08/19 05:50:56;;;;;;;748.95;626.58;;;;;;;;;;5069051;28;20304;-61
2023/08/19 05:53:21;;;;;;;744.97;638.10;;;;;;;;;;5085511;28;20055;-60
2023/08/19 05:55:47;;;;;;;755.23;652.57;;;;;;;;;;5089013;28;20432;-58
2023/08/19 05:58:13;;;;;;;753.42;642.78;;;;;;;;;;5085113;28;20374;-59
2023/08/19 06:00:38;;;;;;;740.85;633.45;;;;;;;;;;5089452;28;20150;-57
2023/08/19 06:03:03;;;;;;;740.73;635.67;;;;;;;;;;5086432;28;20031;-60
2023/08/19 06:05:29;;;;;;;737.22;630.42;;;;;;;;;;5088081;28;20261;-57
2023/08/19 06:07:54;;;;;;;748.80;646.03;;;;;;;;;;5085725;28;20050;-59
2023/08/19 06:10:19;;;;;;;744.57;628.63;;;;;;;;;;5087860;28;20028;-61
2023/08/19 06:12:44;;;;;;;739.72;614.65;;;;;;;;;;5085970;28;20264;-55
2023/08/19 06:15:10;;;;;;;744.67;612.95;;;;;;;;;;5088519;28;20063;-58
2023/08/19 06:17:35;;;;;;;748.03;617.42;;;;;;;;;;5087666;28;20024;-57
2023/08/19 06:20:00;;;;;;;780.80;600.83;;;;;;;;;;5088630;28;20034;-60
2023/08/19 06:22:25;;;;;;;789.28;604.80;;;;;;;;;;5086126;28;20257;-61
2023/08/19 06:24:51;;;;;;;779.30;617.50;;;;;;;;;;5088675;28;20024;-55
2023/08/19 06:27:16;;;;;;;775.57;620.83;;;;;;;;;;5086491;28;20287;-58
2023/08/19 06:29:41;;;;;;;779.33;622.35;;;;;;;;;;5088687;28;20336;-61
2023/08/19 06:32:07;;;;;;;785.80;617.50;;;;;;;;;;5085543;28;20431;-59
2023/08/19 06:34:32;;;;;;;800.03;616.28;;;;;;;;;;5088789;28;20256;-59
2023/08/19 06:36:59;;;;;;;790.05;612.70;;;;;;;;;;5086500;28;20449;-59
2023/08/19 06:39:28;;;;;;;792.55;612.92;;;;;;;;;;5088494;28;20028;-57
2023/08/19 06:41:53;;;;;;;;;;;;;;;;;;5087228;28;20244;-54
2023/08/19 06:44:20;;;;;;;782.17;588.97;;;;;;;;;;5086973;28;19912;-57
2023/08/19 06:46:46;;;;;;;781.38;610.03;;;;;;;;;;5086644;28;20032;-58
2023/08/19 06:49:11;;;;;;;785.40;628.85;;;;;;;;;;5088419;28;20550;-59
2023/08/19 06:51:36;;;;;;;790.58;623.55;;;;;;;;;;5086115;28;20083;-60
2023/08/19 06:54:02;;;;;;;804.33;636.03;;;;;;;;;;5088427;28;20488;-56
2023/08/19 06:56:37;;;;;;;786.20;598.95;;;;;;;;;;5086022;28;20028;-58
2023/08/19 06:59:08;;;;;;;786.25;603.80;;;;;;;;;;5088353;28;20036;-56
2023/08/19 07:01:34;;;;;;;816.70;607.17;;;;;;;;;;5087491;28;20130;-59
2023/08/19 07:03:59;;;;;;;803.40;568.67;;;;;;;;;;5087905;28;20432;-58
2023/08/19 07:06:28;;;;;;;789.03;618.58;;;;;;;;;;5085227;28;20016;-53
2023/08/19 07:08:54;;;;;;;796.35;596.92;;;;;;;;;;5088288;28;20016;-56
2023/08/19 07:11:20;;;;;;;819.05;627.72;;;;;;;;;;5100131;28;20024;-55
2023/08/19 07:13:45;;;;;;;793.80;624.75;;;;;;;;;;5087866;28;20039;-58
2023/08/19 07:16:12;;;;;;;800.78;631.72;;;;;;;;;;5085952;28;20028;-53
2023/08/19 07:18:39;;;;;;;802.40;625.63;;;;;;;;;;5086295;28;20445;-57
2023/08/19 07:21:07;;;;;;;798.58;623.30;;;;;;;;;;5087847;28;20028;-59
2023/08/19 07:23:33;;;;;;;803.03;644.58;;;;;;;;;;5087452;28;20051;-57
2023/08/19 07:25:59;;;;;;;851.72;641.55;;;;;;;;;;5087514;28;20032;-58
2023/08/19 07:28:24;;;;;;;905.67;626.78;;;;;;;;;;5085622;28;20438;-56
2023/08/19 07:30:49;;;;;;;904.75;616.78;;;;;;;;;;5086890;28;20408;-58
2023/08/19 07:33:15;;;;;;;904.85;613.38;;;;;;;;;;5085276;28;20058;-52
2023/08/19 07:35:40;;;;;;;922.88;642.35;;;;;;;;;;5084835;28;20114;-57
2023/08/19 07:38:06;;;;;;;6.20;5.60;;;;;;;;;;5070708;28;20060;-59
2023/08/19 07:40:31;;;;;;;21.08;8.98;;;;;;;;;;5083559;28;20036;-59
2023/08/19 07:42:57;;;;;;;9.27;5.43;;;;;;;;;;5086206;28;20027;-56
2023/08/19 07:45:22;;;;;;;5.40;4.53;;;;;;;;;;5084609;28;20027;-58
2023/08/19 07:47:48;;;;;;;7.82;5.30;;;;;;;;;;5072568;28;20550;-59
2023/08/19 07:50:13;;;;;;;50.35;15.90;;;;;;;;;;5081200;28;20024;-57
2023/08/19 07:52:38;;;;;;;4.97;3.92;;;;;;;;;;5084801;28;20091;-59
2023/08/19 07:55:04;;;;;;;6.87;4.00;;;;;;;;;;5086944;28;20109;-58
2023/08/19 07:57:29;;;;;;;4.65;3.90;;;;;;;;;;5085141;28;20271;-57
2023/08/19 07:59:54;;;;;;;7.57;4.72;;;;;;;;;;5086984;28;20012;-60
2023/08/19 08:02:20;;;;;;;6.37;4.03;;;;;;;;;;5082848;28;20441;-55
2023/08/19 08:04:45;;;;;;;4.22;3.83;;;;;;;;;;5087181;28;20407;-59
2023/08/19 08:07:11;;;;;;;41.20;17.98;;;;;;;;;;5085064;28;20032;-57
2023/08/19 08:09:37;;;;;;;6.38;3.75;;;;;;;;;;5086947;28;20369;-55
2023/08/19 08:12:03;;;;;;;5.72;4.07;;;;;;;;;;5085269;28;20023;-60
2023/08/19 08:14:28;;;;;;;7.68;4.32;;;;;;;;;;5082770;28;20040;-57
2023/08/19 08:16:56;;;;;;;4.32;3.92;;;;;;;;;;5084204;28;20026;-62
2023/08/19 08:19:22;;;;;;;6.68;3.75;;;;;;;;;;5085913;28;20020;-59
2023/08/19 08:21:47;;;;;;;4.43;3.70;;;;;;;;;;5084952;28;20028;-61
2023/08/19 08:24:13;;;;;;;8.80;6.20;;;;;;;;;;5086556;28;20526;-58
2023/08/19 08:26:38;;;;;;;9.47;4.77;;;;;;;;;;5082437;28;20036;-56
2023/08/19 08:29:03;;;;;;;6.10;4.17;;;;;;;;;;5086729;28;20236;-58
2023/08/19 08:31:28;;;;;;;8.63;4.60;;;;;;;;;;5083393;28;20408;-60
2023/08/19 08:33:54;;;;;;;6.03;5.43;;;;;;;;;;5085826;28;20028;-57
2023/08/19 08:36:19;;;;;;;5.20;4.50;;;;;;;;;;5084360;28;20020;-58
2023/08/19 08:38:44;;;;;;;7.40;4.60;;;;;;;;;;5085761;28;20024;-58
2023/08/19 08:41:10;;;;;;;5.20;4.53;;;;;;;;;;5085530;28;20065;-60
2023/08/19 08:43:37;;;;;;;6.53;5.47;;;;;;;;;;5085521;28;20381;-57
2023/08/19 08:46:03;;;;;;;8.35;4.88;;;;;;;;;;5086162;28;20055;-61
2023/08/19 08:48:32;;;;;;;7.45;4.78;;;;;;;;;;5066289;28;20449;-57
2023/08/19 08:50:58;;;;;;;4.40;4.00;;;;;;;;;;5066117;28;20051;-60
2023/08/19 08:53:25;;;;;;;4.70;4.30;;;;;;;;;;5083081;28;20102;-61
2023/08/19 08:55:51;;;;;;;6.07;4.90;;;;;;;;;;5085428;28;20131;-61
2023/08/19 08:58:17;;;;;;;7.20;5.00;;;;;;;;;;5084265;28;20028;-60
2023/08/19 09:00:43;;;;;;;7.63;5.10;;;;;;;;;;5083566;28;20030;-55
2023/08/19 09:03:09;;;;;;;10.10;4.72;;;;;;;;;;5081051;28;20020;-54
2023/08/19 09:05:36;;;;;;;4.70;4.22;;;;;;;;;;5078669;28;20103;-60
2023/08/19 09:08:03;;;;;;;6.85;4.95;;;;;;;;;;5083469;28;20020;-58
2023/08/19 09:10:29;;;;;;;6.90;4.90;;;;;;;;;;5085117;28;20024;-60
2023/08/19 09:13:00;;;;;;;5.72;4.63;;;;;;;;;;5084029;28;20016;-60
2023/08/19 09:15:28;;;;;;;5.28;4.03;;;;;;;;;;5086269;28;20028;-55
2023/08/19 09:17:55;;;;;;;7.38;4.40;;;;;;;;;;5082489;28;20028;-57
2023/08/19 09:20:21;;;;;;;4.38;3.97;;;;;;;;;;5085871;28;20399;-57
2023/08/19 09:22:46;;;;;;;7.77;4.90;;;;;;;;;;5081455;28;20024;-57
2023/08/19 09:25:15;;;;;;;7.15;5.00;;;;;;;;;;5084528;28;20295;-61
2023/08/19 09:27:41;;;;;;;5.38;4.28;;;;;;;;;;5084242;28;20073;-60
2023/08/19 09:30:06;;;;;;;7.30;4.80;;;;;;;;;;5083681;28;20024;-58
2023/08/19 09:32:32;;;;;;;5.20;4.70;;;;;;;;;;5082958;28;20477;-60
2023/08/19 09:35:00;;;;;;;6.88;4.53;;;;;;;;;;5085090;28;20581;-60
2023/08/19 09:37:26;;;;;;;8.32;4.82;;;;;;;;;;5081302;28;20322;-58
2023/08/19 09:39:51;;;;;;;5.97;4.45;;;;;;;;;;5085980;28;20734;-61
2023/08/19 09:42:17;;;;;;;4.57;3.73;;;;;;;;;;5083203;28;20491;-62
2023/08/19 09:44:43;;;;;;;5.03;4.05;;;;;;;;;;5072787;28;20043;-56
2023/08/19 09:47:08;;;;;;;7.30;4.40;;;;;;;;;;5073554;28;20075;-57
2023/08/19 09:49:36;;;;;;;7.87;4.40;;;;;;;;;;5085762;28;20469;-59
2023/08/19 09:52:01;;;;;;;6.80;3.95;;;;;;;;;;5083591;28;20519;-59
2023/08/19 09:54:26;;;;;;;10.85;4.28;;;;;;;;;;5084394;28;20080;-60
2023/08/19 09:56:52;;;;;;;5.40;4.30;;;;;;;;;;5082314;28;20020;-59
2023/08/19 09:59:18;;;;;;;4.32;3.92;;;;;;;;;;5083128;28;20102;-60
2023/08/19 10:01:43;;;;;;;10.60;4.88;;;;;;;;;;5084268;28;20080;-60
2023/08/19 10:04:08;;;;;;;7.20;3.63;;;;;;;;;;5084618;28;20456;-60
2023/08/19 10:06:34;;;;;;;4.63;3.97;;;;;;;;;;5085041;28;20015;-58
2023/08/19 10:09:02;;;;;;;5.68;3.40;;;;;;;;;;5085907;28;20491;-61
2023/08/19 10:11:27;;;;;;;;;;;;;;;;;;5084246;28;20111;-61
2023/08/19 10:13:54;;;;;;;5.80;4.07;;;;;;;;;;5085614;28;19986;-60
2023/08/19 10:16:21;;;;;;;3.92;3.53;;;;;;;;;;5080355;28;20030;-58
2023/08/19 10:18:47;;;;;;;4.00;3.60;;;;;;;;;;5086613;28;20119;-61
2023/08/19 10:21:13;;;;;;;4.95;3.80;;;;;;;;;;5085597;28;20024;-59
2023/08/19 10:23:40;;;;;;;5.60;3.85;;;;;;;;;;5068856;28;20036;-57
2023/08/19 10:26:06;;;;;;;9.00;4.45;;;;;;;;;;5087112;28;20016;-60
2023/08/19 10:28:32;;;;;;;7.70;3.80;;;;;;;;;;5088667;28;20177;-60
2023/08/19 10:31:04;;;;;;;5.20;3.90;;;;;;;;;;5087958;28;20089;-57
2023/08/19 10:33:33;;;;;;;5.40;3.88;;;;;;;;;;5085934;28;20110;-60
2023/08/19 10:36:00;;;;;;;4.07;3.30;;;;;;;;;;5085802;28;20032;-60
2023/08/19 10:38:39;;;;;;;3.97;3.67;;;;;;;;;;5088008;28;20024;-61
2023/08/19 10:41:08;;;;;;;6.05;4.03;;;;;;;;;;5103329;28;20028;-53
2023/08/19 10:43:48;;;;;;;5.25;4.57;;;;;;;;;;5098086;28;20593;-54
2023/08/19 10:46:18;;;;;;;5.72;4.40;;;;;;;;;;5088689;28;20020;-59
2023/08/19 10:48:48;;;;;;;5.50;4.60;;;;;;;;;;5088736;28;20031;-59
2023/08/19 10:51:16;;;;;;;6.72;4.13;;;;;;;;;;5086816;28;20354;-60
2023/08/19 10:53:47;;;;;;;6.05;4.20;;;;;;;;;;5088342;28;20074;-60
2023/08/19 10:56:13;;;;;;;7.68;4.32;;;;;;;;;;5072935;28;20059;-61
2023/08/19 10:58:40;;;;;;;7.47;4.68;;;;;;;;;;5068694;28;20452;-61
2023/08/19 11:01:05;;;;;;;6.47;4.10;;;;;;;;;;5102945;28;20516;-61
2023/08/19 11:03:31;;;;;;;7.07;4.03;;;;;;;;;;5088317;28;20040;-57
2023/08/19 11:05:56;;;;;;;5.90;4.60;;;;;;;;;;5088601;28;20395;-59
2023/08/19 11:08:22;;;;;;;9.93;4.60;;;;;;;;;;5086661;28;20031;-60
2023/08/19 11:10:47;;;;;;;7.03;4.60;;;;;;;;;;5087905;28;20097;-61
2023/08/19 11:13:13;;;;;;;5.10;4.43;;;;;;;;;;5083805;28;20028;-59
2023/08/19 11:15:40;;;;;;;6.50;4.70;;;;;;;;;;5088137;28;20557;-60
2023/08/19 11:18:05;;;;;;;7.38;4.15;;;;;;;;;;5086057;28;20039;-61
2023/08/19 11:20:30;;;;;;;8.25;4.90;;;;;;;;;;5088232;28;20469;-60
2023/08/19 11:22:56;;;;;;;6.77;4.13;;;;;;;;;;5086548;28;20017;-58
2023/08/19 11:25:21;;;;;;;9.83;5.17;;;;;;;;;;5084738;28;20043;-56
2023/08/19 11:27:46;;;;;;;16.57;5.87;;;;;;;;;;5086288;28;20275;-60
2023/08/19 11:30:12;;;;;;;6.83;4.43;;;;;;;;;;5085623;28;20103;-60
2023/08/19 11:32:38;;;;;;;5.00;4.57;;;;;;;;;;5087571;28;20256;-60
2023/08/19 11:35:04;;;;;;;7.50;4.82;;;;;;;;;;5065030;28;20033;-56
2023/08/19 11:37:29;;;;;;;5.50;4.57;;;;;;;;;;5084968;28;20385;-57
2023/08/19 11:39:54;;;;;;;7.07;5.40;;;;;;;;;;5087571;28;20453;-59
2023/08/19 11:42:20;;;;;;;7.65;5.82;;;;;;;;;;5087438;28;20247;-60
2023/08/19 11:44:45;;;;;;;8.80;6.03;;;;;;;;;;5087512;28;20224;-54
2023/08/19 11:47:13;;;;;;;8.30;4.87;;;;;;;;;;5087589;28;20252;-60
2023/08/19 11:49:42;;;;;;;6.72;5.15;;;;;;;;;;5086644;28;20028;-59
2023/08/19 11:52:07;;;;;;;5.57;5.03;;;;;;;;;;5064732;28;20049;-57
2023/08/19 11:54:32;;;;;;;8.57;5.90;;;;;;;;;;5067188;28;20551;-60
2023/08/19 11:57:01;;;;;;;7.87;6.00;;;;;;;;;;5067129;28;20028;-61
2023/08/19 11:59:33;;;;;;;6.25;4.55;;;;;;;;;;5067200;28;20332;-58
2023/08/19 12:02:05;;;;;;;5.97;4.80;;;;;;;;;;5073244;28;20023;-59
2023/08/19 12:04:31;;;;;;;6.72;6.03;;;;;;;;;;5087739;28;20120;-57
2023/08/19 12:06:56;;;;;;;6.88;5.15;;;;;;;;;;5085845;28;20035;-58
2023/08/19 12:09:31;;;;;;;6.55;5.75;;;;;;;;;;5087596;28;20013;-61
2023/08/19 12:12:01;;;;;;;6.85;5.72;;;;;;;;;;5086370;28;20020;-61
2023/08/19 12:14:26;;;;;;;8.77;5.78;;;;;;;;;;5086220;28;20036;-59
2023/08/19 12:16:51;;;;;;;6.47;5.27;;;;;;;;;;5084486;28;20077;-59
2023/08/19 12:19:16;;;;;;;12.40;5.70;;;;;;;;;;5087010;28;20058;-61
2023/08/19 12:21:42;;;;;;;7.33;6.20;;;;;;;;;;5085213;28;20300;-58
2023/08/19 12:24:07;;;;;;;7.07;6.07;;;;;;;;;;5083037;28;20040;-58
2023/08/19 12:26:32;;;;;;;7.53;6.43;;;;;;;;;;5086728;28;20252;-61
2023/08/19 12:28:58;;;;;;;9.53;6.40;;;;;;;;;;5086654;28;20256;-61
2023/08/19 12:31:23;;;;;;;7.53;6.30;;;;;;;;;;5086726;28;20022;-58
2023/08/19 12:33:48;;;;;;;8.43;5.63;;;;;;;;;;5086698;28;20492;-61
2023/08/19 12:36:13;;;;;;;8.50;5.90;;;;;;;;;;5086611;28;20384;-61
2023/08/19 12:38:39;;;;;;;8.70;5.53;;;;;;;;;;5086638;28;20052;-55
2023/08/19 12:41:05;;;;;;;6.27;5.43;;;;;;;;;;5085612;28;20394;-57
2023/08/19 12:43:30;;;;;;;8.05;5.85;;;;;;;;;;5085163;28;20696;-61
2023/08/19 12:45:55;;;;;;;11.07;6.67;;;;;;;;;;5086756;28;20027;-61
2023/08/19 12:48:21;;;;;;;8.07;5.87;;;;;;;;;;5086656;28;20028;-61
2023/08/19 12:50:46;;;;;;;6.40;5.65;;;;;;;;;;5086866;28;20338;-60
2023/08/19 12:53:11;;;;;;;10.80;6.33;;;;;;;;;;5086333;28;20079;-60
2023/08/19 12:55:37;;;;;;;13.50;7.10;;;;;;;;;;5085173;28;20252;-60
2023/08/19 12:58:04;;;;;;;7.60;6.23;;;;;;;;;;5082285;28;20414;-59
2023/08/19 13:00:29;;;;;;;8.32;6.22;;;;;;;;;;5082406;28;20059;-57
2023/08/19 13:02:56;;;;;;;8.75;6.35;;;;;;;;;;5051308;28;20060;-62
2023/08/19 13:05:21;;;;;;;8.68;6.00;;;;;;;;;;5063344;28;20094;-59
2023/08/19 13:07:46;;;;;;;7.00;5.73;;;;;;;;;;5075765;28;20028;-62
2023/08/19 13:10:13;;;;;;;7.43;6.07;;;;;;;;;;5082472;28;20257;-59
2023/08/19 13:12:39;;;;;;;8.07;5.60;;;;;;;;;;5075255;28;20024;-60
2023/08/19 13:15:05;;;;;;;8.90;5.57;;;;;;;;;;5083333;28;20499;-60
2023/08/19 13:17:30;;;;;;;1034.50;938.05;;;;;;;;;;5054956;28;20417;-60
2023/08/19 13:19:55;;;;;;;1038.80;945.07;;;;;;;;;;5063055;28;20032;-61
2023/08/19 13:22:21;;;;;;;1026.18;932.05;;;;;;;;;;5074903;28;20039;-60
2023/08/19 13:24:47;;;;;;;1048.30;952.13;;;;;;;;;;5083134;28;20117;-61
2023/08/19 13:27:13;;;;;;;1030.47;935.53;;;;;;;;;;5082980;28;20115;-62
2023/08/19 13:29:38;;;;;;;1032.90;938.90;;;;;;;;;;5083186;28;20496;-58
2023/08/19 13:32:04;;;;;;;1012.20;919.67;;;;;;;;;;5074719;28;20033;-62
2023/08/19 13:34:29;;;;;;;1002.72;910.78;;;;;;;;;;5065931;28;20340;-57
2023/08/19 13:36:54;;;;;;;1012.97;920.42;;;;;;;;;;5065760;28;20136;-61
2023/08/19 13:39:19;;;;;;;1000.63;909.33;;;;;;;;;;5067559;28;20027;-62
2023/08/19 13:41:45;;;;;;;1004.88;912.90;;;;;;;;;;5084300;28;20073;-57
2023/08/19 13:44:10;;;;;;;992.53;900.85;;;;;;;;;;5085712;28;20547;-61
2023/08/19 13:46:35;;;;;;;992.80;900.65;;;;;;;;;;5085851;28;20165;-62
2023/08/19 13:49:01;;;;;;;1005.03;913.93;;;;;;;;;;5085141;28;20028;-59
2023/08/19 13:51:26;;;;;;;1075.30;976.00;;;;;;;;;;5085717;28;20254;-59
2023/08/19 13:53:51;;;;;;;956.97;866.83;;;;;;;;;;5088515;28;20020;-60
2023/08/19 13:56:16;;;;;;;972.67;882.90;;;;;;;;;;5089029;28;20380;-63
2023/08/19 13:58:42;;;;;;;992.77;900.10;;;;;;;;;;5088764;28;20080;-58
2023/08/19 14:01:09;;;;;;;1025.47;930.03;;;;;;;;;;5089661;28;20676;-56
2023/08/19 14:03:34;;;;;;;996.28;904.03;;;;;;;;;;5087622;28;20535;-55